Time,TemperatureF,DewpointF,PressureIn,WindDirection,WindDirectionDegrees,WindSpeedMPH,WindSpeedGustMPH,Humidity,HourlyPrecipIn,Conditions,Clouds,dailyrainin,SoftwareType,DateUTC
2013-02-21 00:00:00,23.8,11.2,30.09,South,180,0.0,0.0,58,0.00,,,0.00,VWS V14.01,2013-02-21 05:00:00,
2013-02-21 00:05:00,23.6,11.4,30.09,South,180,0.0,0.0,59,0.00,,,0.00,VWS V14.01,2013-02-21 05:05:00,
2013-02-21 00:10:00,23.6,11.1,30.09,South,180,0.0,0.0,58,0.00,,,0.00,VWS V14.01,2013-02-21 05:10:00,
2013-02-21 00:15:00,23.1,10.9,30.09,SSE,158,0.0,0.0,59,0.00,,,0.00,VWS V14.01,2013-02-21 05:15:00,
2013-02-21 00:20:00,23.3,11.1,30.09,SSW,202,0.0,0.0,59,0.00,,,0.00,VWS V14.01,2013-02-21 05:20:00,
2013-02-21 00:25:00,23.1,10.9,30.09,SSW,202,0.0,0.0,59,0.00,,,0.00,VWS V14.01,2013-02-21 05:25:00,
2013-02-21 00:30:00,23.1,10.9,30.09,SSW,202,0.0,0.0,59,0.00,,,0.00,VWS V14.01,2013-02-21 05:30:00,
2013-02-21 00:35:00,23.1,10.6,30.09,SSW,202,0.0,0.0,58,0.00,,,0.00,VWS V14.01,2013-02-21 05:35:00,
2013-02-21 00:40:00,23.1,10.9,30.09,SSW,202,0.0,0.0,59,0.00,,,0.00,VWS V14.01,2013-02-21 05:40:00,
2013-02-21 00:45:00,22.6,11.2,30.09,SSW,202,0.0,0.0,61,0.00,,,0.00,VWS V14.01,2013-02-21 05:45:00,
2013-02-21 00:50:00,22.6,10.4,30.09,SSW,202,0.0,0.0,59,0.00,,,0.00,VWS V14.01,2013-02-21 05:50:00,
2013-02-21 00:55:00,22.9,11.5,30.09,WSW,248,0.0,0.0,61,0.00,,,0.00,VWS V14.01,2013-02-21 05:55:00,
2013-02-21 01:00:00,23.5,12.8,30.09,WNW,292,0.9,1.6,63,0.00,,,0.00,VWS V14.01,2013-02-21 06:00:00,
2013-02-21 01:05:00,23.5,12.4,30.09,NW,315,0.0,1.3,62,0.00,,,0.00,VWS V14.01,2013-02-21 06:05:00,
2013-02-21 01:10:00,23.3,13.6,30.09,East,90,0.0,1.3,66,0.00,,,0.00,VWS V14.01,2013-02-21 06:10:00,
2013-02-21 01:15:00,22.9,12.9,30.09,South,180,2.2,2.5,65,0.00,,,0.00,VWS V14.01,2013-02-21 06:15:00,
2013-02-21 01:20:00,23.1,11.7,30.09,WSW,248,0.0,2.0,61,0.00,,,0.00,VWS V14.01,2013-02-21 06:20:00,
2013-02-21 01:25:00,23.5,11.3,30.09,SW,225,0.0,2.0,59,0.00,,,0.00,VWS V14.01,2013-02-21 06:25:00,
2013-02-21 01:30:00,23.5,11.3,30.09,SW,225,0.0,2.0,59,0.00,,,0.00,VWS V14.01,2013-02-21 06:30:00,
2013-02-21 01:35:00,23.8,13.1,30.09,WNW,292,1.3,2.0,63,0.00,,,0.00,VWS V14.01,2013-02-21 06:35:00,
2013-02-21 01:40:00,24.0,12.9,30.09,NW,315,0.0,2.5,62,0.00,,,0.00,VWS V14.01,2013-02-21 06:40:00,
2013-02-21 01:45:00,24.0,12.9,30.12,SSE,158,0.0,2.5,62,0.00,,,0.00,VWS V14.01,2013-02-21 06:45:00,
2013-02-21 01:50:00,24.0,14.3,30.12,South,180,2.2,3.1,66,0.00,,,0.00,VWS V14.01,2013-02-21 06:50:00,
2013-02-21 01:55:00,24.0,12.9,30.12,South,180,0.0,3.1,62,0.00,,,0.00,VWS V14.01,2013-02-21 06:55:00,
2013-02-21 02:00:00,24.2,12.3,30.12,West,270,0.0,3.1,60,0.00,,,0.00,VWS V14.01,2013-02-21 07:00:00,
2013-02-21 02:05:00,24.4,13.2,30.12,West,270,0.0,1.3,62,0.00,,,0.00,VWS V14.01,2013-02-21 07:05:00,
2013-02-21 02:10:00,24.2,13.1,30.12,ENE,68,0.0,1.3,62,0.00,,,0.00,VWS V14.01,2013-02-21 07:10:00,
2013-02-21 02:15:00,23.8,12.7,30.09,SSE,158,2.7,2.9,62,0.00,,,0.00,VWS V14.01,2013-02-21 07:15:00,
2013-02-21 02:20:00,24.0,12.5,30.09,South,180,0.0,2.7,61,0.00,,,0.00,VWS V14.01,2013-02-21 07:20:00,
2013-02-21 02:25:00,23.8,12.0,30.09,South,180,0.0,2.7,60,0.00,,,0.00,VWS V14.01,2013-02-21 07:25:00,
2013-02-21 02:30:00,23.6,12.2,30.09,South,180,0.0,2.7,61,0.00,,,0.00,VWS V14.01,2013-02-21 07:30:00,
2013-02-21 02:35:00,23.6,12.6,30.09,SW,225,0.9,1.3,62,0.00,,,0.00,VWS V14.01,2013-02-21 07:35:00,
2013-02-21 02:40:00,23.6,12.2,30.09,SSE,158,0.0,1.3,61,0.00,,,0.00,VWS V14.01,2013-02-21 07:40:00,
2013-02-21 02:45:00,23.5,12.8,30.12,SE,135,1.3,2.7,63,0.00,,,0.00,VWS V14.01,2013-02-21 07:45:00,
2013-02-21 02:50:00,22.9,12.2,30.12,SE,135,1.6,2.0,63,0.00,,,0.00,VWS V14.01,2013-02-21 07:50:00,
2013-02-21 02:55:00,23.5,12.4,30.12,South,180,2.0,2.2,62,0.00,,,0.00,VWS V14.01,2013-02-21 07:55:00,
2013-02-21 03:00:00,24.0,12.9,30.09,SSW,202,0.0,3.1,62,0.00,,,0.00,VWS V14.01,2013-02-21 08:00:00,
2013-02-21 03:05:00,24.4,12.5,30.09,WSW,248,0.0,0.0,60,0.00,,,0.00,VWS V14.01,2013-02-21 08:05:00,
2013-02-21 03:10:00,24.4,12.5,30.09,NE,45,0.0,0.0,60,0.00,,,0.00,VWS V14.01,2013-02-21 08:10:00,
2013-02-21 03:15:00,23.6,13.3,30.06,SE,135,0.0,0.0,64,0.00,,,0.00,VWS V14.01,2013-02-21 08:15:00,
2013-02-21 03:20:00,23.3,12.9,30.06,SSE,158,0.0,0.0,64,0.00,,,0.00,VWS V14.01,2013-02-21 08:20:00,
2013-02-21 03:25:00,23.3,12.2,30.06,WSW,248,0.0,0.0,62,0.00,,,0.00,VWS V14.01,2013-02-21 08:25:00,
2013-02-21 03:30:00,23.3,12.9,30.09,SW,225,0.0,1.6,64,0.00,,,0.00,VWS V14.01,2013-02-21 08:30:00,
2013-02-21 03:35:00,23.5,12.8,30.09,South,180,0.0,1.6,63,0.00,,,0.00,VWS V14.01,2013-02-21 08:35:00,
2013-02-21 03:40:00,23.3,12.9,30.09,South,180,0.0,1.6,64,0.00,,,0.00,VWS V14.01,2013-02-21 08:40:00,
2013-02-21 03:45:00,22.9,11.5,30.06,South,180,0.0,1.6,61,0.00,,,0.00,VWS V14.01,2013-02-21 08:45:00,
2013-02-21 03:50:00,23.1,11.7,30.06,South,180,0.0,0.0,61,0.00,,,0.00,VWS V14.01,2013-02-21 08:50:00,
2013-02-21 03:55:00,22.9,12.2,30.06,South,180,0.0,0.0,63,0.00,,,0.00,VWS V14.01,2013-02-21 08:55:00,
2013-02-21 04:00:00,22.9,12.6,30.09,South,180,0.0,0.0,64,0.00,,,0.00,VWS V14.01,2013-02-21 09:00:00,
2013-02-21 04:05:00,22.6,13.3,30.09,South,180,0.0,0.0,67,0.00,,,0.00,VWS V14.01,2013-02-21 09:05:00,
2013-02-21 04:10:00,22.0,13.4,30.09,South,180,0.0,0.0,69,0.00,,,0.00,VWS V14.01,2013-02-21 09:10:00,
2013-02-21 04:15:00,22.0,13.4,30.09,South,180,0.0,0.0,69,0.00,,,0.00,VWS V14.01,2013-02-21 09:15:00,
2013-02-21 04:20:00,22.6,13.9,30.09,WSW,248,0.0,0.0,69,0.00,,,0.00,VWS V14.01,2013-02-21 09:20:00,
2013-02-21 04:25:00,22.6,12.9,30.09,WNW,292,0.0,1.3,66,0.00,,,0.00,VWS V14.01,2013-02-21 09:25:00,
2013-02-21 04:30:00,22.8,13.5,30.12,WNW,292,0.0,1.3,67,0.00,,,0.00,VWS V14.01,2013-02-21 09:30:00,
2013-02-21 04:35:00,22.0,13.8,30.12,South,180,0.0,1.3,70,0.00,,,0.00,VWS V14.01,2013-02-21 09:35:00,
2013-02-21 04:40:00,22.2,13.9,30.12,South,180,0.0,1.3,70,0.00,,,0.00,VWS V14.01,2013-02-21 09:40:00,
2013-02-21 04:45:00,22.8,13.5,30.09,South,180,0.0,1.3,67,0.00,,,0.00,VWS V14.01,2013-02-21 09:45:00,
2013-02-21 04:50:00,22.8,13.5,30.09,South,180,0.0,0.0,67,0.00,,,0.00,VWS V14.01,2013-02-21 09:50:00,
2013-02-21 04:55:00,22.8,13.8,30.09,South,180,0.0,0.0,68,0.00,,,0.00,VWS V14.01,2013-02-21 09:55:00,
2013-02-21 05:00:00,22.9,14.3,30.09,South,180,0.0,0.0,69,0.00,,,0.00,VWS V14.01,2013-02-21 10:00:00,
2013-02-21 05:05:00,23.1,14.5,30.09,South,180,0.0,0.0,69,0.00,,,0.00,VWS V14.01,2013-02-21 10:05:00,
2013-02-21 05:10:00,23.1,14.8,30.09,South,180,0.0,0.0,70,0.00,,,0.00,VWS V14.01,2013-02-21 10:10:00,
2013-02-21 05:15:00,23.3,15.3,30.12,South,180,0.0,0.0,71,0.00,,,0.00,VWS V14.01,2013-02-21 10:15:00,
2013-02-21 05:20:00,23.3,15.6,30.12,South,180,0.0,0.0,72,0.00,,,0.00,VWS V14.01,2013-02-21 10:20:00,
2013-02-21 05:25:00,22.9,15.3,30.12,South,180,0.0,0.0,72,0.00,,,0.00,VWS V14.01,2013-02-21 10:25:00,
2013-02-21 05:30:00,22.9,14.0,30.12,SSW,202,0.0,0.0,68,0.00,,,0.00,VWS V14.01,2013-02-21 10:30:00,
2013-02-21 05:35:00,23.1,14.1,30.12,SSW,202,0.0,0.0,68,0.00,,,0.00,VWS V14.01,2013-02-21 10:35:00,
2013-02-21 05:40:00,23.1,14.1,30.12,SSW,202,0.0,0.0,68,0.00,,,0.00,VWS V14.01,2013-02-21 10:40:00,
2013-02-21 05:45:00,22.9,14.0,30.12,SSW,202,0.0,0.0,68,0.00,,,0.00,VWS V14.01,2013-02-21 10:45:00,
2013-02-21 05:50:00,22.8,14.1,30.12,SSW,202,0.0,0.0,69,0.00,,,0.00,VWS V14.01,2013-02-21 10:50:00,
2013-02-21 05:55:00,22.6,14.3,30.12,SSE,158,0.0,0.0,70,0.00,,,0.00,VWS V14.01,2013-02-21 10:55:00,
2013-02-21 06:00:00,22.4,13.8,30.12,SSE,158,0.0,0.0,69,0.00,,,0.00,VWS V14.01,2013-02-21 11:00:00,
2013-02-21 06:05:00,22.8,13.1,30.12,SSW,202,0.0,0.0,66,0.00,,,0.00,VWS V14.01,2013-02-21 11:05:00,
2013-02-21 06:10:00,22.8,12.4,30.12,SSW,202,0.0,0.0,64,0.00,,,0.00,VWS V14.01,2013-02-21 11:10:00,
2013-02-21 06:15:00,22.8,13.8,30.12,NNW,338,0.0,0.0,68,0.00,,,0.00,VWS V14.01,2013-02-21 11:15:00,
2013-02-21 06:20:00,22.6,13.9,30.12,SSW,202,0.0,0.0,69,0.00,,,0.00,VWS V14.01,2013-02-21 11:20:00,
2013-02-21 06:25:00,22.0,13.8,30.12,South,180,0.0,0.0,70,0.00,,,0.00,VWS V14.01,2013-02-21 11:25:00,
2013-02-21 06:30:00,22.2,13.3,30.12,WSW,248,0.0,0.0,68,0.00,,,0.00,VWS V14.01,2013-02-21 11:30:00,
2013-02-21 06:35:00,22.2,13.6,30.12,SSW,202,0.0,0.0,69,0.00,,,0.00,VWS V14.01,2013-02-21 11:35:00,
2013-02-21 06:40:00,22.0,13.4,30.12,SSE,158,0.0,0.0,69,0.00,,,0.00,VWS V14.01,2013-02-21 11:40:00,
2013-02-21 06:45:00,21.9,13.3,30.12,SSE,158,0.0,0.0,69,0.00,,,0.00,VWS V14.01,2013-02-21 11:45:00,
2013-02-21 06:50:00,21.9,13.3,30.12,SSE,158,0.0,0.0,69,0.00,,,0.00,VWS V14.01,2013-02-21 11:50:00,
2013-02-21 06:55:00,21.7,13.1,30.12,SSE,158,0.0,0.0,69,0.00,,,0.00,VWS V14.01,2013-02-21 11:55:00,
2013-02-21 07:00:00,21.7,13.4,30.12,WNW,292,0.0,0.0,70,0.00,,,0.00,VWS V14.01,2013-02-21 12:00:00,
2013-02-21 07:05:00,21.9,13.9,30.12,WNW,292,0.0,0.0,71,0.00,,,0.00,VWS V14.01,2013-02-21 12:05:00,
2013-02-21 07:10:00,21.7,13.7,30.12,WNW,292,0.0,0.0,71,0.00,,,0.00,VWS V14.01,2013-02-21 12:10:00,
2013-02-21 07:15:00,21.5,13.9,30.15,SSE,158,0.0,0.0,72,0.00,,,0.00,VWS V14.01,2013-02-21 12:15:00,
2013-02-21 07:20:00,21.5,14.5,30.15,SW,225,0.0,0.0,74,0.00,,,0.00,VWS V14.01,2013-02-21 12:20:00,
2013-02-21 07:25:00,21.5,14.5,30.15,SW,225,0.0,0.0,74,0.00,,,0.00,VWS V14.01,2013-02-21 12:25:00,
2013-02-21 07:30:00,21.5,14.2,30.15,SW,225,0.0,0.0,73,0.00,,,0.00,VWS V14.01,2013-02-21 12:30:00,
2013-02-21 07:35:00,21.5,14.2,30.15,South,180,0.0,0.0,73,0.00,,,0.00,VWS V14.01,2013-02-21 12:35:00,
2013-02-21 07:40:00,21.3,14.0,30.15,South,180,0.0,0.0,73,0.00,,,0.00,VWS V14.01,2013-02-21 12:40:00,
2013-02-21 07:45:00,21.3,13.7,30.15,South,180,0.0,0.0,72,0.00,,,0.00,VWS V14.01,2013-02-21 12:45:00,
2013-02-21 07:50:00,21.3,14.0,30.15,South,180,0.0,0.0,73,0.00,,,0.00,VWS V14.01,2013-02-21 12:50:00,
2013-02-21 07:55:00,21.3,14.0,30.15,South,180,0.0,0.0,73,0.00,,,0.00,VWS V14.01,2013-02-21 12:55:00,
2013-02-21 08:00:00,21.5,13.9,30.15,South,180,0.0,0.0,72,0.00,,,0.00,VWS V14.01,2013-02-21 13:00:00,
2013-02-21 08:05:00,22.0,13.8,30.15,South,180,0.0,0.0,70,0.00,,,0.00,VWS V14.01,2013-02-21 13:05:00,
2013-02-21 08:09:00,23.1,13.8,30.15,South,180,0.0,0.0,67,0.00,,,0.00,VWS V14.01,2013-02-21 13:09:00,
2013-02-21 08:14:00,23.8,14.5,30.15,South,180,0.0,0.0,67,0.00,,,0.00,VWS V14.01,2013-02-21 13:14:00,
2013-02-21 08:15:00,24.4,15.4,30.15,South,180,0.0,0.0,68,0.00,,,0.00,VWS V14.01,2013-02-21 13:15:00,
2013-02-21 08:19:00,25.3,14.8,30.15,SE,135,0.0,0.0,64,0.00,,,0.00,VWS V14.01,2013-02-21 13:19:00,
2013-02-21 08:24:00,26.2,14.6,30.15,SE,135,0.0,0.0,61,0.00,,,0.00,VWS V14.01,2013-02-21 13:24:00,
2013-02-21 08:30:00,26.9,14.1,30.18,SSE,158,0.0,0.0,58,0.00,,,0.00,VWS V14.01,2013-02-21 13:30:00,
2013-02-21 08:35:00,27.8,14.1,30.18,SSE,158,0.0,0.0,56,0.00,,,0.00,VWS V14.01,2013-02-21 13:35:00,
2013-02-21 08:40:00,28.3,14.7,30.18,ENE,68,0.0,0.0,56,0.00,,,0.00,VWS V14.01,2013-02-21 13:40:00,
2013-02-21 08:45:00,29.4,14.8,30.15,SE,135,2.0,2.2,54,0.00,,,0.00,VWS V14.01,2013-02-21 13:45:00,
2013-02-21 08:50:00,30.9,16.2,30.15,ESE,112,1.3,2.0,54,0.00,,,0.00,VWS V14.01,2013-02-21 13:50:00,
2013-02-21 08:55:00,31.6,16.0,30.15,WSW,248,0.0,2.0,52,0.00,,,0.00,VWS V14.01,2013-02-21 13:55:00,
2013-02-21 09:00:00,31.9,15.4,30.15,South,180,0.0,2.0,50,0.00,,,0.00,VWS V14.01,2013-02-21 14:00:00,
2013-02-21 09:05:00,32.5,15.0,30.15,NNW,338,1.1,2.2,48,0.00,,,0.00,VWS V14.01,2013-02-21 14:05:00,
2013-02-21 09:10:00,32.3,13.9,30.15,NNW,338,2.5,2.5,46,0.00,,,0.00,VWS V14.01,2013-02-21 14:10:00,
2013-02-21 09:14:00,32.7,14.2,30.15,NNW,338,1.3,2.5,46,0.00,,,0.00,VWS V14.01,2013-02-21 14:14:00,
2013-02-21 09:15:00,32.8,14.3,30.15,NNW,338,2.9,3.1,46,0.00,,,0.00,VWS V14.01,2013-02-21 14:15:00,
2013-02-21 09:19:00,33.0,14.0,30.15,WNW,292,2.2,2.9,45,0.00,,,0.00,VWS V14.01,2013-02-21 14:19:00,
2013-02-21 09:24:00,33.7,14.7,30.15,NW,315,2.2,2.9,45,0.00,,,0.00,VWS V14.01,2013-02-21 14:24:00,
2013-02-21 09:29:00,34.5,13.8,30.12,NNE,22,1.1,2.9,42,0.00,,,0.00,VWS V14.01,2013-02-21 14:29:00,
2013-02-21 09:30:00,42.5,15.5,30.15,WNW,292,2.9,3.4,33,0.00,,,0.00,VWS V14.01,2013-02-21 14:30:00,
2013-02-21 09:34:00,35.0,14.2,30.12,NNW,338,1.1,2.9,42,0.00,,,0.00,VWS V14.01,2013-02-21 14:34:00,
2013-02-21 09:39:00,35.5,14.7,30.12,NNW,338,1.6,2.9,42,0.00,,,0.00,VWS V14.01,2013-02-21 14:39:00,
2013-02-21 09:44:00,36.1,13.5,30.15,WNW,292,2.0,2.9,39,0.00,,,0.00,VWS V14.01,2013-02-21 14:44:00,
2013-02-21 09:45:00,44.2,16.2,30.12,WNW,292,2.0,3.4,32,0.00,,,0.00,VWS V14.01,2013-02-21 14:45:00,
2013-02-21 09:49:00,36.6,12.2,30.15,NE,45,1.6,2.9,36,0.00,,,0.00,VWS V14.01,2013-02-21 14:49:00,
2013-02-21 09:54:00,37.5,13.0,30.15,West,270,2.2,2.9,36,0.00,,,0.00,VWS V14.01,2013-02-21 14:54:00,
2013-02-21 09:59:00,38.2,13.6,30.15,ENE,68,1.6,2.9,36,0.00,,,0.00,VWS V14.01,2013-02-21 14:59:00,
2013-02-21 10:00:00,38.4,13.8,30.15,NE,45,0.9,2.9,36,0.00,,,0.00,VWS V14.01,2013-02-21 15:00:00,
2013-02-21 10:04:00,39.7,14.9,30.15,NNE,22,3.1,3.1,36,0.00,,,0.00,VWS V14.01,2013-02-21 15:04:00,
2013-02-21 10:09:00,40.8,15.9,30.15,ESE,112,3.1,3.1,36,0.00,,,0.00,VWS V14.01,2013-02-21 15:09:00,
2013-02-21 10:14:00,41.7,14.7,30.15,SSE,158,2.7,3.1,33,0.00,,,0.00,VWS V14.01,2013-02-21 15:14:00,
2013-02-21 10:15:00,41.7,14.7,30.15,SSW,202,1.3,3.1,33,0.00,,,0.00,VWS V14.01,2013-02-21 15:15:00,
2013-02-21 10:19:00,42.4,15.3,30.15,WNW,292,0.9,2.2,33,0.00,,,0.00,VWS V14.01,2013-02-21 15:19:00,
2013-02-21 10:24:00,43.3,16.1,30.15,NNE,22,2.9,2.9,33,0.00,,,0.00,VWS V14.01,2013-02-21 15:24:00,
2013-02-21 10:29:00,42.7,17.0,30.15,WNW,292,2.0,3.1,35,0.00,,,0.00,VWS V14.01,2013-02-21 15:29:00,
2013-02-21 10:30:00,42.5,15.5,30.15,WNW,292,2.9,3.4,33,0.00,,,0.00,VWS V14.01,2013-02-21 15:30:00,
2013-02-21 10:34:00,42.7,17.0,30.15,WNW,292,2.7,3.4,35,0.00,,,0.00,VWS V14.01,2013-02-21 15:34:00,
2013-02-21 10:39:00,43.3,16.1,30.15,WNW,292,2.7,3.4,33,0.00,,,0.00,VWS V14.01,2013-02-21 15:39:00,
2013-02-21 10:44:00,44.0,16.0,30.12,North,0,1.3,3.4,32,0.00,,,0.00,VWS V14.01,2013-02-21 15:44:00,
2013-02-21 10:45:00,44.2,16.2,30.12,WNW,292,2.0,3.4,32,0.00,,,0.00,VWS V14.01,2013-02-21 15:45:00,
2013-02-21 10:49:00,44.3,16.4,30.12,West,270,2.5,2.5,32,0.00,,,0.00,VWS V14.01,2013-02-21 15:49:00,
2013-02-21 10:54:00,44.5,15.0,30.12,WNW,292,2.5,2.5,30,0.00,,,0.00,VWS V14.01,2013-02-21 15:54:00,
2013-02-21 10:59:00,45.8,15.4,30.12,NW,315,3.4,3.4,29,0.00,,,0.00,VWS V14.01,2013-02-21 15:59:00,
2013-02-21 11:00:00,45.8,15.4,30.12,WSW,248,2.7,3.4,29,0.00,,,0.00,VWS V14.01,2013-02-21 16:00:00,
2013-02-21 11:04:00,46.0,15.5,30.12,WNW,292,2.0,3.1,29,0.00,,,0.00,VWS V14.01,2013-02-21 16:04:00,
2013-02-21 11:09:00,46.5,16.0,30.12,West,270,2.0,3.6,29,0.00,,,0.00,VWS V14.01,2013-02-21 16:09:00,
2013-02-21 11:14:00,47.8,17.1,30.12,WNW,292,2.5,3.6,29,0.00,,,0.00,VWS V14.01,2013-02-21 16:14:00,
2013-02-21 11:15:00,47.8,17.1,30.12,NNW,338,2.9,3.6,29,0.00,,,0.00,VWS V14.01,2013-02-21 16:15:00,
2013-02-21 11:19:00,48.0,17.2,30.12,East,90,2.0,3.6,29,0.00,,,0.00,VWS V14.01,2013-02-21 16:19:00,
2013-02-21 11:24:00,48.7,17.9,30.12,SE,135,2.2,3.6,29,0.00,,,0.00,VWS V14.01,2013-02-21 16:24:00,
2013-02-21 11:29:00,49.6,18.6,30.09,West,270,2.7,3.6,29,0.00,,,0.00,VWS V14.01,2013-02-21 16:29:00,
2013-02-21 11:30:00,57.7,21.2,30.06,WSW,248,3.4,4.3,24,0.00,,,0.00,VWS V14.01,2013-02-21 16:30:00,
2013-02-21 11:34:00,50.1,19.1,30.09,WNW,292,1.6,3.6,29,0.00,,,0.00,VWS V14.01,2013-02-21 16:34:00,
2013-02-21 11:39:00,50.5,19.4,30.09,WNW,292,1.6,3.6,29,0.00,,,0.00,VWS V14.01,2013-02-21 16:39:00,
2013-02-21 11:44:00,51.5,19.5,30.09,North,0,1.6,3.6,28,0.00,,,0.00,VWS V14.01,2013-02-21 16:44:00,
2013-02-21 11:45:00,51.5,19.5,30.09,North,0,1.6,3.6,28,0.00,,,0.00,VWS V14.01,2013-02-21 16:45:00,
2013-02-21 11:49:00,52.3,20.2,30.09,NNE,22,3.1,3.1,28,0.00,,,0.00,VWS V14.01,2013-02-21 16:49:00,
2013-02-21 11:54:00,53.0,20.8,30.09,NNE,22,3.1,3.1,28,0.00,,,0.00,VWS V14.01,2013-02-21 16:54:00,
2013-02-21 11:59:00,53.5,21.2,30.09,SW,225,2.5,3.1,28,0.00,,,0.00,VWS V14.01,2013-02-21 16:59:00,
2013-02-21 12:00:00,53.5,21.2,30.09,WNW,292,0.9,3.1,28,0.00,,,0.00,VWS V14.01,2013-02-21 17:00:00,
2013-02-21 12:04:00,54.2,21.9,30.09,WNW,292,2.9,2.9,28,0.00,,,0.00,VWS V14.01,2013-02-21 17:04:00,
2013-02-21 12:09:00,54.8,21.5,30.09,ENE,68,1.3,4.0,27,0.00,,,0.00,VWS V14.01,2013-02-21 17:09:00,
2013-02-21 12:14:00,55.2,21.8,30.09,NW,315,2.7,4.3,27,0.00,,,0.00,VWS V14.01,2013-02-21 17:14:00,
2013-02-21 12:15:00,62.5,27.2,30.03,NNE,22,3.4,4.3,26,0.00,,,0.00,VWS V14.01,2013-02-21 17:15:00,
2013-02-21 12:19:00,55.9,22.4,30.09,NW,315,2.2,4.3,27,0.00,,,0.00,VWS V14.01,2013-02-21 17:19:00,
2013-02-21 12:24:00,56.8,23.2,30.09,WNW,292,2.7,4.3,27,0.00,,,0.00,VWS V14.01,2013-02-21 17:24:00,
2013-02-21 12:29:00,57.3,23.6,30.06,SSW,202,3.6,4.3,27,0.00,,,0.00,VWS V14.01,2013-02-21 17:29:00,
2013-02-21 12:30:00,57.7,21.2,30.06,WSW,248,3.4,4.3,24,0.00,,,0.00,VWS V14.01,2013-02-21 17:30:00,
2013-02-21 12:34:00,57.7,21.2,30.06,NNE,22,2.5,3.4,24,0.00,,,0.00,VWS V14.01,2013-02-21 17:34:00,
2013-02-21 12:39:00,58.4,24.6,30.06,NW,315,2.2,3.4,27,0.00,,,0.00,VWS V14.01,2013-02-21 17:39:00,
2013-02-21 12:44:00,58.6,24.7,30.06,NW,315,1.1,3.6,27,0.00,,,0.00,VWS V14.01,2013-02-21 17:44:00,
2013-02-21 12:45:00,58.8,24.9,30.06,NNW,338,2.0,3.6,27,0.00,,,0.00,VWS V14.01,2013-02-21 17:45:00,
2013-02-21 12:49:00,59.3,22.5,30.06,ESE,112,1.3,3.1,24,0.00,,,0.00,VWS V14.01,2013-02-21 17:49:00,
2013-02-21 12:54:00,60.4,25.4,30.06,West,270,0.0,3.6,26,0.00,,,0.00,VWS V14.01,2013-02-21 17:54:00,
2013-02-21 12:59:00,61.3,26.1,30.06,NW,315,2.5,3.8,26,0.00,,,0.00,VWS V14.01,2013-02-21 17:59:00,
2013-02-21 13:00:00,61.5,26.3,30.06,NNW,338,2.7,3.8,26,0.00,,,0.00,VWS V14.01,2013-02-21 18:00:00,
2013-02-21 13:04:00,61.6,26.4,30.06,NNW,338,2.9,4.0,26,0.00,,,0.00,VWS V14.01,2013-02-21 18:04:00,
2013-02-21 13:09:00,62.0,26.7,30.06,NE,45,1.6,4.0,26,0.00,,,0.00,VWS V14.01,2013-02-21 18:09:00,
2013-02-21 13:14:00,62.3,27.0,30.03,NNW,338,1.3,4.3,26,0.00,,,0.00,VWS V14.01,2013-02-21 18:14:00,
2013-02-21 13:15:00,62.5,27.2,30.03,NNE,22,3.4,4.3,26,0.00,,,0.00,VWS V14.01,2013-02-21 18:15:00,
2013-02-21 13:19:00,62.9,27.5,30.03,ENE,68,2.9,3.4,26,0.00,,,0.00,VWS V14.01,2013-02-21 18:19:00,
2013-02-21 13:24:00,63.4,28.0,30.03,WNW,292,0.9,4.0,26,0.00,,,0.00,VWS V14.01,2013-02-21 18:24:00,
2013-02-21 13:29:00,63.8,27.3,30.03,NNW,338,3.1,4.0,25,0.00,,,0.00,VWS V14.01,2013-02-21 18:29:00,
2013-02-21 13:30:00,63.2,27.8,30.03,NW,315,2.9,4.0,26,0.00,,,0.00,VWS V14.01,2013-02-21 18:30:00,
2013-02-21 13:34:00,63.4,28.0,30.03,NNE,22,6.0,6.0,26,0.00,,,0.00,VWS V14.01,2013-02-21 18:34:00,
2013-02-21 13:39:00,62.9,27.5,30.03,WSW,248,2.5,6.0,26,0.00,,,0.00,VWS V14.01,2013-02-21 18:39:00,
2013-02-21 13:44:00,63.6,27.2,30.03,NE,45,2.9,6.0,25,0.00,,,0.00,VWS V14.01,2013-02-21 18:44:00,
2013-02-21 13:49:00,64.2,27.6,30.03,NNE,22,3.4,6.0,25,0.00,,,0.00,VWS V14.01,2013-02-21 18:49:00,
2013-02-21 13:54:00,64.5,27.9,30.03,NNW,338,2.7,6.0,25,0.00,,,0.00,VWS V14.01,2013-02-21 18:54:00,
2013-02-21 13:59:00,64.9,28.2,30.03,West,270,2.0,6.0,25,0.00,,,0.00,VWS V14.01,2013-02-21 18:59:00,
2013-02-21 14:00:00,64.9,28.2,30.03,West,270,2.0,6.0,25,0.00,,,0.00,VWS V14.01,2013-02-21 19:00:00,
2013-02-21 14:04:00,64.3,27.8,30.03,SSE,158,3.6,5.8,25,0.00,,,0.00,VWS V14.01,2013-02-21 19:04:00,
2013-02-21 14:09:00,64.5,27.9,30.03,ESE,112,4.3,5.8,25,0.00,,,0.00,VWS V14.01,2013-02-21 19:09:00,
2013-02-21 14:14:00,64.0,27.5,30.03,SSE,158,7.2,7.2,25,0.00,,,0.00,VWS V14.01,2013-02-21 19:14:00,
2013-02-21 14:15:00,63.8,27.3,30.03,SSW,202,4.3,7.2,25,0.00,,,0.00,VWS V14.01,2013-02-21 19:15:00,
2013-02-21 14:19:00,63.8,27.3,30.03,SSE,158,2.9,5.6,25,0.00,,,0.00,VWS V14.01,2013-02-21 19:19:00,
2013-02-21 14:24:00,63.4,28.0,30.03,SSW,202,5.6,5.6,26,0.00,,,0.00,VWS V14.01,2013-02-21 19:24:00,
2013-02-21 14:29:00,62.9,27.5,30.03,SSE,158,13.2,13.2,26,0.00,,,0.00,VWS V14.01,2013-02-21 19:29:00,
2013-02-21 14:30:00,63.1,27.7,30.03,SSE,158,13.2,13.2,26,0.00,,,0.00,VWS V14.01,2013-02-21 19:30:00,
2013-02-21 14:34:00,63.4,28.0,30.03,SSE,158,3.6,13.2,26,0.00,,,0.00,VWS V14.01,2013-02-21 19:34:00,
2013-02-21 14:39:00,63.4,28.0,30.03,ENE,68,2.7,13.2,26,0.00,,,0.00,VWS V14.01,2013-02-21 19:39:00,
2013-02-21 14:44:00,62.5,27.2,30.03,NE,45,2.9,13.2,26,0.00,,,0.00,VWS V14.01,2013-02-21 19:44:00,
2013-02-21 14:45:00,61.5,26.3,30.03,SE,135,4.3,6.0,26,0.00,,,0.00,VWS V14.01,2013-02-21 19:45:00,
2013-02-21 14:49:00,62.7,27.4,30.03,SSE,158,2.7,13.2,26,0.00,,,0.00,VWS V14.01,2013-02-21 19:49:00,
2013-02-21 14:54:00,62.2,26.9,30.03,South,180,4.7,13.2,26,0.00,,,0.00,VWS V14.01,2013-02-21 19:54:00,
2013-02-21 14:59:00,62.2,26.9,30.06,SE,135,6.5,13.2,26,0.00,,,0.00,VWS V14.01,2013-02-21 19:59:00,
2013-02-21 15:00:00,62.3,27.0,30.06,South,180,3.8,13.2,26,0.00,,,0.00,VWS V14.01,2013-02-21 20:00:00,
2013-02-21 15:04:00,62.3,27.0,30.06,NW,315,2.5,5.4,26,0.00,,,0.00,VWS V14.01,2013-02-21 20:04:00,
2013-02-21 15:09:00,62.3,27.0,30.06,East,90,0.9,5.6,26,0.00,,,0.00,VWS V14.01,2013-02-21 20:09:00,
2013-02-21 15:14:00,63.6,27.2,30.03,SSE,158,2.5,5.6,25,0.00,,,0.00,VWS V14.01,2013-02-21 20:14:00,
2013-02-21 15:15:00,63.4,28.0,30.03,South,180,4.9,6.0,26,0.00,,,0.00,VWS V14.01,2013-02-21 20:15:00,
2013-02-21 15:19:00,63.1,27.7,30.03,SSW,202,0.0,5.6,26,0.00,,,0.00,VWS V14.01,2013-02-21 20:19:00,
2013-02-21 15:24:00,63.6,27.2,30.03,WNW,292,0.0,5.6,25,0.00,,,0.00,VWS V14.01,2013-02-21 20:24:00,
2013-02-21 15:29:00,62.2,26.9,30.03,SE,135,4.0,13.4,26,0.00,,,0.00,VWS V14.01,2013-02-21 20:29:00,
2013-02-21 15:30:00,61.6,26.4,30.03,South,180,2.2,13.4,26,0.00,,,0.00,VWS V14.01,2013-02-21 20:30:00,
2013-02-21 15:34:00,61.8,26.6,30.03,SSE,158,2.7,5.4,26,0.00,,,0.00,VWS V14.01,2013-02-21 20:34:00,
2013-02-21 15:39:00,61.6,26.4,30.03,West,270,3.8,6.0,26,0.00,,,0.00,VWS V14.01,2013-02-21 20:39:00,
2013-02-21 15:44:00,61.5,26.3,30.03,SSE,158,4.9,6.0,26,0.00,,,0.00,VWS V14.01,2013-02-21 20:44:00,
2013-02-21 15:45:00,61.5,26.3,30.03,SE,135,4.3,6.0,26,0.00,,,0.00,VWS V14.01,2013-02-21 20:45:00,
2013-02-21 15:49:00,61.5,26.3,30.03,SSE,158,5.4,7.8,26,0.00,,,0.00,VWS V14.01,2013-02-21 20:49:00,
2013-02-21 15:54:00,61.3,26.1,30.03,ESE,112,1.6,7.8,26,0.00,,,0.00,VWS V14.01,2013-02-21 20:54:00,
2013-02-21 15:59:00,61.3,26.1,30.03,SSW,202,2.0,7.8,26,0.00,,,0.00,VWS V14.01,2013-02-21 20:59:00,
2013-02-21 16:00:00,59.8,25.8,29.97,South,180,2.9,8.1,27,0.00,,,0.00,VWS V14.01,2013-02-21 21:00:00,
2013-02-21 16:04:00,61.1,26.0,30.03,SSE,158,2.0,7.8,26,0.00,,,0.00,VWS V14.01,2013-02-21 21:04:00,
2013-02-21 16:09:00,60.7,25.7,30.03,SSE,158,2.7,7.8,26,0.00,,,0.00,VWS V14.01,2013-02-21 21:09:00,
2013-02-21 16:14:00,60.7,25.7,30.03,SSE,158,2.0,7.8,26,0.00,,,0.00,VWS V14.01,2013-02-21 21:14:00,
2013-02-21 16:15:00,60.7,25.7,30.03,SSE,158,2.0,7.8,26,0.00,,,0.00,VWS V14.01,2013-02-21 21:15:00,
2013-02-21 16:19:00,60.5,25.5,30.03,SSE,158,2.0,2.0,26,0.00,,,0.00,VWS V14.01,2013-02-21 21:19:00,
2013-02-21 16:24:00,60.5,25.5,30.03,East,90,2.7,6.0,26,0.00,,,0.00,VWS V14.01,2013-02-21 21:24:00,
2013-02-21 16:29:00,60.2,25.2,30.03,SSW,202,3.4,6.0,26,0.00,,,0.00,VWS V14.01,2013-02-21 21:29:00,
2013-02-21 16:30:00,60.4,25.4,30.03,SSE,158,4.9,6.0,26,0.00,,,0.00,VWS V14.01,2013-02-21 21:30:00,
2013-02-21 16:34:00,60.0,25.0,30.03,SSW,202,2.5,6.3,26,0.00,,,0.00,VWS V14.01,2013-02-21 21:34:00,
2013-02-21 16:39:00,60.2,25.2,30.03,SSW,202,8.1,8.1,26,0.00,,,0.00,VWS V14.01,2013-02-21 21:39:00,
2013-02-21 16:44:00,60.2,25.2,30.00,ENE,68,2.9,8.1,26,0.00,,,0.00,VWS V14.01,2013-02-21 21:44:00,
2013-02-21 16:45:00,58.0,24.3,29.97,SSW,202,2.0,4.3,27,0.00,,,0.00,VWS V14.01,2013-02-21 21:45:00,
2013-02-21 16:49:00,60.0,25.0,30.00,SSE,158,4.3,8.1,26,0.00,,,0.00,VWS V14.01,2013-02-21 21:49:00,
2013-02-21 16:54:00,59.8,25.8,30.00,SSW,202,3.4,8.1,27,0.00,,,0.00,VWS V14.01,2013-02-21 21:54:00,
2013-02-21 16:59:00,59.8,25.8,29.97,SE,135,2.0,8.1,27,0.00,,,0.00,VWS V14.01,2013-02-21 21:59:00,
2013-02-21 17:00:00,59.8,25.8,29.97,South,180,2.9,8.1,27,0.00,,,0.00,VWS V14.01,2013-02-21 22:00:00,
2013-02-21 17:04:00,59.7,25.6,29.97,SSE,158,1.6,2.9,27,0.00,,,0.00,VWS V14.01,2013-02-21 22:04:00,
2013-02-21 17:09:00,59.5,25.5,29.97,SSW,202,0.0,2.9,27,0.00,,,0.00,VWS V14.01,2013-02-21 22:09:00,
2013-02-21 17:14:00,59.3,25.3,29.94,SSW,202,0.0,2.9,27,0.00,,,0.00,VWS V14.01,2013-02-21 22:14:00,
2013-02-21 17:15:00,59.3,25.3,29.94,SSW,202,0.0,2.9,27,0.00,,,0.00,VWS V14.01,2013-02-21 22:15:00,
2013-02-21 17:19:00,59.1,25.2,29.94,SSW,202,0.0,0.0,27,0.00,,,0.00,VWS V14.01,2013-02-21 22:19:00,
2013-02-21 17:24:00,58.6,24.7,29.94,SSW,202,0.0,0.0,27,0.00,,,0.00,VWS V14.01,2013-02-21 22:24:00,
2013-02-21 17:29:00,58.4,24.6,29.94,SSW,202,0.0,0.0,27,0.00,,,0.00,VWS V14.01,2013-02-21 22:29:00,
2013-02-21 17:30:00,58.4,24.6,29.97,South,180,0.9,0.9,27,0.00,,,0.00,VWS V14.01,2013-02-21 22:30:00,
2013-02-21 17:34:00,58.4,24.6,29.97,East,90,0.0,2.9,27,0.00,,,0.00,VWS V14.01,2013-02-21 22:34:00,
2013-02-21 17:39:00,58.4,24.6,29.97,SSW,202,1.1,2.9,27,0.00,,,0.00,VWS V14.01,2013-02-21 22:39:00,
2013-02-21 17:44:00,58.0,24.3,29.97,SE,135,2.0,4.3,27,0.00,,,0.00,VWS V14.01,2013-02-21 22:44:00,
2013-02-21 17:45:00,58.0,24.3,29.97,SSW,202,2.0,4.3,27,0.00,,,0.00,VWS V14.01,2013-02-21 22:45:00,
2013-02-21 17:49:00,57.8,24.1,29.97,WSW,248,2.0,2.0,27,0.00,,,0.00,VWS V14.01,2013-02-21 22:49:00,
2013-02-21 17:54:00,57.7,24.0,29.97,SSW,202,0.0,2.7,27,0.00,,,0.00,VWS V14.01,2013-02-21 22:54:00,
2013-02-21 17:59:00,57.1,23.5,29.97,WSW,248,2.0,2.7,27,0.00,,,0.00,VWS V14.01,2013-02-21 22:59:00,
2013-02-21 18:00:00,57.1,23.5,29.97,WSW,248,2.0,2.7,27,0.00,,,0.00,VWS V14.01,2013-02-21 23:00:00,
2013-02-21 18:04:00,57.0,23.3,29.97,SSW,202,2.9,2.9,27,0.00,,,0.00,VWS V14.01,2013-02-21 23:04:00,
2013-02-21 18:09:00,57.0,23.3,29.97,SSE,158,2.5,6.5,27,0.00,,,0.00,VWS V14.01,2013-02-21 23:09:00,
2013-02-21 18:14:00,57.3,23.6,29.97,South,180,3.4,8.5,27,0.00,,,0.00,VWS V14.01,2013-02-21 23:14:00,
2013-02-21 18:15:00,57.3,23.6,29.97,SSE,158,4.9,8.5,27,0.00,,,0.00,VWS V14.01,2013-02-21 23:15:00,
2013-02-21 18:19:00,57.5,23.8,29.97,East,90,1.3,5.8,27,0.00,,,0.00,VWS V14.01,2013-02-21 23:19:00,
2013-02-21 18:24:00,57.3,23.6,29.97,ESE,112,3.8,7.4,27,0.00,,,0.00,VWS V14.01,2013-02-21 23:24:00,
2013-02-21 18:29:00,57.0,23.3,29.97,SSE,158,2.0,7.4,27,0.00,,,0.00,VWS V14.01,2013-02-21 23:29:00,
2013-02-21 18:30:00,52.8,20.6,30.03,WNW,292,0.0,3.1,28,0.00,,,0.00,VWS V14.01,2013-02-21 23:30:00,
2013-02-21 18:34:00,56.6,23.0,29.97,SE,135,7.4,8.1,27,0.00,,,0.00,VWS V14.01,2013-02-21 23:34:00,
2013-02-21 18:39:00,56.8,23.2,29.97,SE,135,1.1,8.1,27,0.00,,,0.00,VWS V14.01,2013-02-21 23:39:00,
2013-02-21 18:44:00,56.2,22.7,29.97,NE,45,2.5,8.1,27,0.00,,,0.00,VWS V14.01,2013-02-21 23:44:00,
2013-02-21 18:45:00,56.2,22.7,29.97,East,90,2.7,8.1,27,0.00,,,0.00,VWS V14.01,2013-02-21 23:45:00,
2013-02-21 18:49:00,55.9,22.4,29.97,SSE,158,2.2,5.6,27,0.00,,,0.00,VWS V14.01,2013-02-21 23:49:00,
2013-02-21 18:54:00,55.7,22.2,29.97,SSE,158,0.0,5.6,27,0.00,,,0.00,VWS V14.01,2013-02-21 23:54:00,
2013-02-21 18:59:00,55.5,22.1,29.94,SW,225,2.0,5.6,27,0.00,,,0.00,VWS V14.01,2013-02-21 23:59:00,
2013-02-21 19:00:00,55.3,21.9,29.94,SW,225,2.0,5.6,27,0.00,,,0.00,VWS V14.01,2013-02-22 00:00:00,
2013-02-21 19:04:00,55.0,21.6,29.94,WSW,248,0.0,2.0,27,0.00,,,0.00,VWS V14.01,2013-02-22 00:04:00,
2013-02-21 19:09:00,54.6,21.3,29.94,SSW,202,0.0,2.0,27,0.00,,,0.00,VWS V14.01,2013-02-22 00:09:00,
2013-02-21 19:14:00,54.1,21.7,30.03,SW,225,0.0,2.0,28,0.00,,,0.00,VWS V14.01,2013-02-22 00:14:00,
2013-02-21 19:15:00,54.1,21.7,30.03,SW,225,0.0,2.0,28,0.00,,,0.00,VWS V14.01,2013-02-22 00:15:00,
2013-02-21 19:19:00,53.7,21.4,30.03,NNE,22,2.9,2.9,28,0.00,,,0.00,VWS V14.01,2013-02-22 00:19:00,
2013-02-21 19:24:00,53.7,21.4,30.03,North,0,0.0,3.1,28,0.00,,,0.00,VWS V14.01,2013-02-22 00:24:00,
2013-02-21 19:29:00,53.0,20.8,30.03,WNW,292,0.0,3.1,28,0.00,,,0.00,VWS V14.01,2013-02-22 00:29:00,
2013-02-21 19:30:00,52.8,20.6,30.03,WNW,292,0.0,3.1,28,0.00,,,0.00,VWS V14.01,2013-02-22 00:30:00,
2013-02-21 19:34:00,52.3,20.2,30.03,NW,315,2.9,3.8,28,0.00,,,0.00,VWS V14.01,2013-02-22 00:34:00,
2013-02-21 19:39:00,52.3,20.2,30.03,WNW,292,1.1,3.8,28,0.00,,,0.00,VWS V14.01,2013-02-22 00:39:00,
2013-02-21 19:44:00,51.9,23.7,30.06,NNW,338,2.0,3.8,33,0.00,,,0.00,VWS V14.01,2013-02-22 00:44:00,
2013-02-21 19:45:00,51.9,23.7,30.06,WNW,292,2.0,3.8,33,0.00,,,0.00,VWS V14.01,2013-02-22 00:45:00,
2013-02-21 19:49:00,50.8,28.6,30.06,West,270,0.9,2.0,42,0.00,,,0.00,VWS V14.01,2013-02-22 00:49:00,
2013-02-21 19:54:00,49.8,32.9,30.06,NNE,22,1.3,2.0,52,0.00,,,0.00,VWS V14.01,2013-02-22 00:54:00,
2013-02-21 19:59:00,48.5,32.2,30.09,SW,225,0.0,2.5,53,0.00,,,0.00,VWS V14.01,2013-02-22 00:59:00,
2013-02-21 20:00:00,48.1,33.2,30.09,SSW,202,0.0,2.5,56,0.00,,,0.00,VWS V14.01,2013-02-22 01:00:00,
2013-02-21 20:04:00,48.0,32.6,30.09,SSW,202,0.0,0.0,55,0.00,,,0.00,VWS V14.01,2013-02-22 01:04:00,
2013-02-21 20:09:00,46.2,35.0,30.09,South,180,2.5,2.5,65,0.00,,,0.00,VWS V14.01,2013-02-22 01:09:00,
2013-02-21 20:14:00,45.8,35.8,30.09,South,180,2.5,2.5,68,0.04,,,0.04,VWS V14.01,2013-02-22 01:14:00,
2013-02-21 20:15:00,44.2,32.0,30.03,South,180,2.5,2.5,62,0.20,,,0.20,VWS V14.01,2013-02-22 01:15:00,
2013-02-21 20:19:00,44.9,37.1,30.09,South,180,2.5,2.5,74,0.04,,,0.00,VWS V14.01,2013-02-22 01:19:00,
2013-02-21 20:24:00,44.3,39.8,30.09,South,180,2.5,2.5,84,0.04,,,0.04,VWS V14.01,2013-02-22 01:24:00,
2013-02-21 20:29:00,44.5,40.3,30.06,South,180,2.5,2.5,85,0.04,,,0.04,VWS V14.01,2013-02-22 01:29:00,
2013-02-21 20:30:00,44.5,40.3,30.06,South,180,2.5,2.5,85,0.08,,,0.08,VWS V14.01,2013-02-22 01:30:00,
2013-02-21 20:34:00,44.0,36.2,30.06,South,180,2.5,2.5,74,0.08,,,0.08,VWS V14.01,2013-02-22 01:34:00,
2013-02-21 20:39:00,44.2,38.7,30.06,South,180,2.5,2.5,81,0.08,,,0.08,VWS V14.01,2013-02-22 01:39:00,
2013-02-21 20:44:00,43.6,39.4,30.06,South,180,2.5,2.5,85,0.08,,,0.08,VWS V14.01,2013-02-22 01:44:00,
2013-02-21 20:45:00,43.3,38.5,30.06,South,180,2.5,2.5,83,0.12,,,0.12,VWS V14.01,2013-02-22 01:45:00,
2013-02-21 20:49:00,43.3,35.9,30.06,South,180,2.5,2.5,75,0.12,,,0.12,VWS V14.01,2013-02-22 01:49:00,
2013-02-21 20:54:00,42.9,34.2,30.06,South,180,2.5,2.5,71,0.12,,,0.12,VWS V14.01,2013-02-22 01:54:00,
2013-02-21 20:59:00,42.5,35.5,30.03,South,180,2.5,2.5,76,0.12,,,0.12,VWS V14.01,2013-02-22 01:59:00,
2013-02-21 21:00:00,42.0,37.5,30.09,South,180,2.5,2.5,84,0.17,,,0.29,VWS V14.01,2013-02-22 02:00:00,
2013-02-21 21:04:00,42.7,36.0,30.03,South,180,2.5,2.5,77,0.16,,,0.16,VWS V14.01,2013-02-22 02:04:00,
2013-02-21 21:09:00,44.5,32.7,30.03,South,180,2.5,2.5,63,0.16,,,0.16,VWS V14.01,2013-02-22 02:09:00,
2013-02-21 21:14:00,44.2,32.0,30.03,South,180,2.5,2.5,62,0.20,,,0.20,VWS V14.01,2013-02-22 02:14:00,
2013-02-21 21:15:00,44.2,32.0,30.03,South,180,2.5,2.5,62,0.20,,,0.20,VWS V14.01,2013-02-22 02:15:00,
2013-02-21 21:19:00,44.3,30.9,30.03,South,180,2.5,2.5,59,0.12,,,0.20,VWS V14.01,2013-02-22 02:19:00,
2013-02-21 21:24:00,43.6,33.4,30.03,South,180,2.5,2.5,67,0.12,,,0.20,VWS V14.01,2013-02-22 02:24:00,
2013-02-21 21:29:00,42.7,34.0,30.03,South,180,2.5,2.5,71,0.12,,,0.20,VWS V14.01,2013-02-22 02:29:00,
2013-02-21 21:30:00,42.7,34.0,30.03,South,180,2.5,2.5,71,0.16,,,0.24,VWS V14.01,2013-02-22 02:30:00,
2013-02-21 21:34:00,42.2,37.4,30.03,South,180,2.5,2.5,83,0.16,,,0.24,VWS V14.01,2013-02-22 02:34:00,
2013-02-21 21:39:00,42.0,38.1,30.03,South,180,2.5,2.5,86,0.16,,,0.24,VWS V14.01,2013-02-22 02:39:00,
2013-02-21 21:44:00,42.0,39.3,30.06,South,180,2.5,2.5,90,0.16,,,0.24,VWS V14.01,2013-02-22 02:44:00,
2013-02-21 21:45:00,41.8,39.1,30.06,South,180,2.5,2.5,90,0.16,,,0.24,VWS V14.01,2013-02-22 02:45:00,
2013-02-21 21:49:00,42.0,36.3,30.06,South,180,2.5,2.5,80,0.17,,,0.29,VWS V14.01,2013-02-22 02:49:00,
2013-02-21 21:54:00,42.2,35.2,30.06,South,180,2.5,2.5,76,0.17,,,0.29,VWS V14.01,2013-02-22 02:54:00,
2013-02-21 21:59:00,42.2,37.4,30.09,South,180,2.5,2.5,83,0.17,,,0.29,VWS V14.01,2013-02-22 02:59:00,
2013-02-21 22:00:00,42.0,37.5,30.09,South,180,2.5,2.5,84,0.17,,,0.29,VWS V14.01,2013-02-22 03:00:00,
2013-02-21 22:04:00,43.1,35.7,30.09,ESE,112,2.5,2.9,75,0.13,,,0.33,VWS V14.01,2013-02-22 03:04:00,
2013-02-21 22:09:00,42.0,36.6,30.09,NE,45,2.0,7.6,81,0.17,,,0.37,VWS V14.01,2013-02-22 03:09:00,
2013-02-21 22:14:00,41.3,37.1,30.09,NNW,338,1.1,7.6,85,0.17,,,0.37,VWS V14.01,2013-02-22 03:14:00,
2013-02-21 22:15:00,40.9,37.1,30.09,NW,315,4.0,7.6,86,0.21,,,0.41,VWS V14.01,2013-02-22 03:15:00,
2013-02-21 22:19:00,40.6,37.6,30.09,WNW,292,1.6,4.3,89,0.21,,,0.41,VWS V14.01,2013-02-22 03:19:00,
2013-02-21 22:24:00,40.6,38.2,30.09,SSE,158,1.3,4.3,91,0.21,,,0.41,VWS V14.01,2013-02-22 03:24:00,
2013-02-21 22:29:00,40.4,38.0,30.09,West,270,3.6,5.4,91,0.21,,,0.41,VWS V14.01,2013-02-22 03:29:00,
2013-02-21 22:30:00,40.4,38.0,30.09,WSW,248,2.2,5.4,91,0.21,,,0.41,VWS V14.01,2013-02-22 03:30:00,
2013-02-21 22:34:00,40.4,38.3,30.09,WNW,292,3.1,3.4,92,0.17,,,0.41,VWS V14.01,2013-02-22 03:34:00,
2013-02-21 22:39:00,40.4,38.3,30.09,SE,135,1.1,3.6,92,0.17,,,0.41,VWS V14.01,2013-02-22 03:39:00,
2013-02-21 22:44:00,40.4,38.5,30.06,SW,225,0.0,3.6,93,0.17,,,0.41,VWS V14.01,2013-02-22 03:44:00,
2013-02-21 22:45:00,40.4,38.8,30.06,West,270,1.3,3.6,94,0.17,,,0.41,VWS V14.01,2013-02-22 03:45:00,
2013-02-21 22:49:00,40.4,39.3,30.06,SSE,158,1.1,1.6,96,0.17,,,0.41,VWS V14.01,2013-02-22 03:49:00,
2013-02-21 22:54:00,40.2,38.9,30.06,SSW,202,1.6,2.9,95,0.17,,,0.41,VWS V14.01,2013-02-22 03:54:00,
2013-02-21 22:59:00,40.2,39.7,30.09,SSE,158,2.5,2.9,98,0.17,,,0.41,VWS V14.01,2013-02-22 03:59:00,
2013-02-21 23:00:00,40.2,39.7,30.09,SSW,202,2.7,3.4,98,0.17,,,0.41,VWS V14.01,2013-02-22 04:00:00,
2013-02-21 23:04:00,40.2,40.0,30.09,WNW,292,2.5,3.6,99,0.16,,,0.45,VWS V14.01,2013-02-22 04:04:00,
2013-02-21 23:09:00,40.2,40.2,30.09,NNW,338,1.6,3.6,100,0.16,,,0.45,VWS V14.01,2013-02-22 04:09:00,
2013-02-21 23:14:00,40.2,40.2,30.12,South,180,0.0,3.6,100,0.16,,,0.45,VWS V14.01,2013-02-22 04:14:00,
2013-02-21 23:15:00,40.2,40.2,30.12,WNW,292,2.0,3.6,100,0.16,,,0.45,VWS V14.01,2013-02-22 04:15:00,
2013-02-21 23:19:00,40.0,40.0,30.12,WSW,248,0.9,3.8,100,0.04,,,0.45,VWS V14.01,2013-02-22 04:19:00,
2013-02-21 23:24:00,40.0,40.0,30.12,WNW,292,2.7,3.8,100,0.04,,,0.45,VWS V14.01,2013-02-22 04:24:00,
2013-02-21 23:29:00,40.0,40.0,30.12,SE,135,2.2,3.8,100,0.04,,,0.45,VWS V14.01,2013-02-22 04:29:00,
2013-02-21 23:30:00,40.0,40.0,30.12,South,180,1.3,3.8,100,0.04,,,0.45,VWS V14.01,2013-02-22 04:30:00,
2013-02-21 23:34:00,40.0,40.0,30.12,SSW,202,0.0,2.7,100,0.09,,,0.50,VWS V14.01,2013-02-22 04:34:00,
2013-02-21 23:39:00,39.8,39.8,30.12,South,180,0.0,2.9,100,0.09,,,0.50,VWS V14.01,2013-02-22 04:39:00,
2013-02-21 23:44:00,39.7,39.4,30.12,WSW,248,0.0,2.9,99,0.09,,,0.50,VWS V14.01,2013-02-22 04:44:00,
2013-02-21 23:45:00,39.7,39.4,30.12,WNW,292,1.6,2.9,99,0.09,,,0.50,VWS V14.01,2013-02-22 04:45:00,
2013-02-21 23:49:00,39.8,39.8,30.12,WNW,292,2.5,3.6,100,0.09,,,0.50,VWS V14.01,2013-02-22 04:49:00,
2013-02-21 23:54:00,39.7,39.7,30.12,SSE,158,1.3,3.6,100,0.13,,,0.54,VWS V14.01,2013-02-22 04:54:00,
2013-02-21 23:59:00,39.7,39.7,30.15,NNW,338,0.9,3.6,100,0.13,,,0.54,VWS V14.01,2013-02-22 04:59:00,